Time;durP1;ratioP1;P1;durP2;ratioP2;P2;SDS_P1;SDS_P2;PMS_P1;PMS_P2;Temp;Humidity;BMP_temperature;BMP_pressure;BME280_temperature;BME280_humidity;BME280_pressure;Samples;Min_cycle;Max_cycle;Signal;HPM_P1;HPM_P2
2021/04/10 00:07:34;;;;;;;14.80;10.90;;;4.40;99.90;;;2.27;100.00;100047.13;5033708;28;70533;-62
2021/04/10 00:23:06;;;;;;;13.00;10.03;;;4.20;99.90;;;2.13;100.00;100029.66;4954293;28;55708;-62
2021/04/10 00:37:25;;;;;;;13.10;9.43;;;4.00;99.90;;;3.04;100.00;100037.88;4947412;28;67387;-60
2021/04/10 00:41:12;;;;;;;12.10;9.23;;;4.00;99.90;;;3.43;100.00;100040.09;5032689;28;46307;-62
2021/04/10 00:44:34;;;;;;;11.77;9.83;;;4.20;99.90;;;3.51;100.00;100040.34;4965334;28;48784;-62
2021/04/10 00:47:45;;;;;;;10.10;9.00;;;4.30;99.90;;;3.58;100.00;100046.84;5041738;28;52218;-62
2021/04/10 00:50:57;;;;;;;13.30;9.40;;;4.40;99.90;;;3.54;100.00;100037.47;5031327;28;56396;-63
2021/04/10 01:05:18;;;;;;;12.90;9.77;;;4.70;99.90;;;3.13;100.00;100040.63;5020052;28;50207;-61
2021/04/10 01:08:55;;;;;;;10.97;9.60;;;4.70;99.90;;;2.91;100.00;100035.31;5022222;28;54170;-62
2021/04/10 01:12:41;;;;;;;14.17;10.80;;;4.70;99.90;;;2.64;100.00;100026.78;4955976;28;58741;-62
2021/04/10 01:16:20;;;;;;;15.83;10.63;;;4.70;99.90;;;2.58;100.00;100027.25;4922258;28;59387;-61
2021/04/10 01:23:37;;;;;;;12.40;9.67;;;4.60;99.90;;;2.82;100.00;100014.88;5001125;28;53475;-61
2021/04/10 01:31:03;;;;;;;13.50;11.37;;;4.60;99.90;;;2.49;100.00;100007.63;4929378;28;73890;-62
2021/04/10 01:34:30;;;;;;;16.23;10.90;;;4.60;99.90;;;3.16;100.00;99997.28;4938298;28;57928;-63
2021/04/10 01:37:49;;;;;;;11.03;9.83;;;4.60;99.90;;;3.19;100.00;99995.25;4944646;28;63427;-59
2021/04/10 01:41:14;;;;;;;12.20;10.07;;;4.70;99.90;;;3.33;100.00;99990.69;5006509;28;55533;-62
2021/04/10 01:44:27;;;;;;;11.87;10.60;;;4.70;99.90;;;3.31;100.00;99992.59;5005885;28;58335;-62
2021/04/10 01:47:40;;;;;;;12.63;9.37;;;4.80;99.90;;;3.35;100.00;99994.88;5030561;28;74086;-62
2021/04/10 01:51:12;;;;;;;14.90;11.00;;;4.90;99.90;;;2.96;100.00;99997.97;5035693;28;60137;-62
2021/04/10 01:55:03;;;;;;;13.63;11.27;;;4.90;99.90;;;2.81;100.00;99995.53;4994772;28;68286;-61
2021/04/10 01:58:30;;;;;;;13.60;11.57;;;5.00;99.90;;;2.81;100.00;99992.03;4959558;28;64963;-62
2021/04/10 02:05:24;;;;;;;13.27;11.60;;;5.00;99.90;;;2.69;100.00;99988.53;5015834;28;64101;-62
2021/04/10 02:15:51;;;;;;;12.73;11.17;;;5.10;99.90;;;2.80;100.00;99979.78;4875153;28;84576;-62
2021/04/10 02:18:21;;;;;;;13.63;12.33;;;5.10;99.90;;;2.72;100.00;99976.88;5003078;28;71395;-61
2021/04/10 02:20:54;;;;;;;15.67;12.60;;;5.10;99.90;;;2.72;100.00;99975.06;4995154;28;64647;-62
2021/04/10 02:23:21;;;;;;;13.77;12.27;;;5.20;99.90;;;2.91;100.00;99961.31;5006690;28;81212;-62
2021/04/10 02:26:00;;;;;;;14.40;12.83;;;5.20;99.90;;;2.77;100.00;99948.31;5004378;28;79426;-61
2021/04/10 02:28:27;;;;;;;14.07;12.37;;;5.30;99.90;;;2.72;100.00;99947.84;5009156;28;71977;-62
2021/04/10 02:30:57;;;;;;;13.13;11.73;;;5.30;99.90;;;2.87;100.00;99947.47;5012486;28;81716;-62
2021/04/10 02:33:30;;;;;;;12.57;10.73;;;5.30;99.90;;;3.03;100.00;99939.22;5008350;28;76656;-60
2021/04/10 02:35:58;;;;;;;11.53;10.37;;;5.30;99.90;;;3.10;100.00;99937.78;5000649;28;74350;-62
2021/04/10 02:38:28;;;;;;;13.30;11.17;;;5.30;99.90;;;3.13;100.00;99937.53;5023151;28;82842;-61
2021/04/10 02:41:05;;;;;;;12.87;10.13;;;5.30;99.90;;;3.17;100.00;99932.88;4984499;28;88075;-62
2021/04/10 02:43:40;;;;;;;11.77;9.90;;;5.40;99.90;;;3.17;100.00;99936.34;5005029;28;79173;-60
2021/04/10 02:46:10;;;;;;;13.10;10.07;;;5.40;99.90;;;3.23;100.00;99937.66;4998525;28;81592;-61
2021/04/10 02:48:52;;;;;;;10.53;9.47;;;5.50;99.90;;;3.24;100.00;99936.69;4999076;28;87291;-62
2021/04/10 02:51:24;;;;;;;10.40;9.40;;;5.50;99.90;;;3.36;100.00;99925.16;5010711;28;84014;-61
2021/04/10 02:53:54;;;;;;;12.63;10.23;;;5.60;99.90;;;3.40;100.00;99931.06;4982145;28;77249;-62
2021/04/10 02:56:26;;;;;;;11.03;9.80;;;5.70;99.90;;;3.36;100.00;99935.72;4999446;28;80629;-62
2021/04/10 02:58:55;;;;;;;13.07;9.57;;;5.70;99.90;;;3.46;100.00;99941.16;5005496;28;76448;-61
2021/04/10 03:01:22;;;;;;;13.90;10.73;;;5.70;99.90;;;3.35;100.00;99939.34;5011667;28;67354;-61
2021/04/10 03:03:51;;;;;;;13.00;10.60;;;5.80;99.90;;;3.25;100.00;99931.28;4986534;28;75000;-62
2021/04/10 03:06:20;;;;;;;12.93;10.97;;;5.80;99.90;;;3.27;100.00;99930.34;5003361;28;74800;-62
2021/04/10 03:08:57;;;;;;;13.23;9.70;;;5.80;99.90;;;3.29;100.00;99934.53;5000677;28;78074;-61
2021/04/10 03:11:26;;;;;;;11.83;9.50;;;5.80;99.90;;;3.30;100.00;99932.75;5002191;28;74402;-62
2021/04/10 03:13:56;;;;;;;9.70;8.40;;;5.80;99.90;;;3.31;100.00;99929.97;4998432;28;68477;-57
2021/04/10 03:16:29;;;;;;;9.53;8.50;;;5.80;99.90;;;3.33;100.00;99932.50;5001357;28;55677;-62
2021/04/10 03:18:58;;;;;;;13.00;8.77;;;5.80;99.90;;;3.46;100.00;99920.00;5002683;28;53471;-62
2021/04/10 03:21:31;;;;;;;11.77;8.80;;;5.80;99.90;;;3.56;100.00;99921.78;4998823;28;65443;-62
2021/04/10 03:24:11;;;;;;;9.53;8.53;;;5.90;99.90;;;3.64;100.00;99929.09;5008386;28;75570;-63
2021/04/10 03:26:39;;;;;;;10.53;8.43;;;5.90;99.90;;;3.66;100.00;99921.88;5010304;28;79627;-62
2021/04/10 03:29:11;;;;;;;13.00;10.37;;;5.90;99.90;;;3.62;100.00;99931.03;5012700;28;57634;-62
2021/04/10 03:31:46;;;;;;;12.13;10.40;;;6.00;99.90;;;3.53;100.00;99929.97;5032216;28;63513;-61
2021/04/10 03:34:13;;;;;;;13.57;9.77;;;6.00;99.90;;;3.51;100.00;99942.47;5018481;28;60108;-62
2021/04/10 03:36:41;;;;;;;12.00;9.73;;;6.00;99.90;;;3.46;100.00;99949.09;5020355;28;61137;-62
2021/04/10 03:39:11;;;;;;;10.20;9.20;;;6.00;99.90;;;3.42;100.00;99945.84;5013930;28;55198;-62
2021/04/10 03:41:42;;;;;;;11.07;9.67;;;6.00;99.90;;;3.54;100.00;99938.75;5018855;28;55458;-62
2021/04/10 03:44:12;;;;;;;11.33;8.87;;;6.10;99.90;;;3.49;100.00;99952.31;5031029;28;65242;-61
2021/04/10 03:46:40;;;;;;;11.67;9.57;;;6.10;99.90;;;3.54;100.00;99951.97;5002748;28;54838;-61
2021/04/10 03:49:08;;;;;;;10.83;8.03;;;6.10;99.90;;;3.55;100.00;99956.28;5003923;28;49317;-61
2021/04/10 03:51:36;;;;;;;15.00;10.03;;;6.10;99.90;;;3.44;100.00;99962.44;5004849;28;50780;-62
2021/04/10 03:54:05;;;;;;;12.47;9.43;;;6.10;99.90;;;3.41;100.00;99956.53;5007177;28;48935;-61
2021/04/10 03:56:36;;;;;;;10.33;9.23;;;6.20;99.90;;;3.45;100.00;99965.94;5012669;28;60178;-61
2021/04/10 03:59:18;;;;;;;9.80;8.83;;;6.20;99.90;;;3.44;100.00;99973.03;5018699;28;52025;-61
2021/04/10 04:01:51;;;;;;;11.37;9.87;;;6.20;99.90;;;3.46;100.00;99971.06;5040556;28;51676;-61
2021/04/10 04:04:19;;;;;;;10.93;9.83;;;6.20;99.90;;;3.36;100.00;99977.19;5008658;28;53796;-60
2021/04/10 04:06:46;;;;;;;10.87;9.73;;;6.20;99.90;;;3.41;100.00;99983.84;5019472;28;66872;-61
2021/04/10 04:09:13;;;;;;;11.37;10.10;;;6.20;99.90;;;3.36;100.00;99993.06;5020718;28;60480;-61
2021/04/10 04:11:40;;;;;;;12.63;10.67;;;6.20;99.90;;;3.34;100.00;100000.31;5038502;28;56563;-61
2021/04/10 04:14:07;;;;;;;13.57;10.10;;;6.20;99.90;;;3.19;100.00;100003.19;5038555;28;58543;-60
2021/04/10 04:16:33;;;;;;;13.80;10.23;;;6.20;99.90;;;3.36;100.00;99993.06;5037180;28;58434;-60
2021/04/10 04:19:00;;;;;;;12.47;11.17;;;6.10;99.90;;;2.97;100.00;99992.53;5021722;28;70170;-61
2021/04/10 04:21:27;;;;;;;11.60;10.40;;;6.10;99.90;;;3.07;100.00;99988.25;5014846;28;61699;-60
2021/04/10 04:23:53;;;;;;;14.00;10.30;;;6.00;99.90;;;3.16;100.00;99994.63;5010739;28;73044;-61
2021/04/10 04:26:21;;;;;;;11.97;10.73;;;5.90;99.90;;;3.24;100.00;99992.22;5011504;28;79853;-60
2021/04/10 04:28:57;;;;;;;12.67;10.80;;;5.90;99.90;;;3.06;100.00;99998.94;5018800;28;61089;-60
2021/04/10 04:31:23;;;;;;;13.40;10.43;;;5.80;99.90;;;3.21;100.00;99984.56;5015765;28;62470;-60
2021/04/10 04:33:50;;;;;;;13.57;11.40;;;5.80;99.90;;;3.27;100.00;99978.78;5020422;28;62280;-59
2021/04/10 04:36:24;;;;;;;13.33;11.10;;;5.80;99.90;;;3.28;100.00;99975.16;5023802;28;80373;-58
2021/04/10 04:38:50;;;;;;;15.67;11.53;;;5.80;99.90;;;3.19;100.00;99962.66;5023239;28;77968;-60
2021/04/10 04:41:17;;;;;;;13.13;11.10;;;5.70;99.90;;;3.32;100.00;99970.50;5027534;27;82669;-59
2021/04/10 04:43:44;;;;;;;13.33;12.00;;;5.70;99.90;;;3.53;100.00;99976.72;5032461;28;75431;-59
2021/04/10 04:46:11;;;;;;;13.37;11.63;;;5.70;99.90;;;3.48;100.00;99974.44;5025808;28;72394;-59
2021/04/10 04:48:38;;;;;;;13.30;10.80;;;5.70;99.90;;;3.47;100.00;99975.41;4997229;28;74291;-59
2021/04/10 04:51:05;;;;;;;12.70;11.40;;;5.70;99.90;;;3.41;100.00;99962.66;5017917;28;66839;-58
2021/04/10 04:53:32;;;;;;;14.23;12.00;;;5.70;99.90;;;3.37;100.00;99963.88;5015209;28;66332;-58
2021/04/10 04:55:59;;;;;;;16.57;11.83;;;5.70;99.90;;;3.44;100.00;99961.59;5009079;28;77395;-59
2021/04/10 04:58:25;;;;;;;13.73;11.63;;;5.70;99.90;;;3.54;100.00;99963.38;5009772;28;70206;-58
2021/04/10 05:00:52;;;;;;;13.00;11.67;;;5.70;99.90;;;3.64;100.00;99970.59;5009884;28;70998;-59
2021/04/10 05:03:19;;;;;;;19.67;17.03;;;5.80;99.90;;;3.64;100.00;99987.31;5011286;28;71166;-58
2021/04/10 05:06:05;;;;;;;18.97;16.23;;;5.80;99.90;;;3.72;100.00;99998.13;5011218;28;78777;-59
2021/04/10 05:08:31;;;;;;;15.77;12.30;;;5.80;99.90;;;3.53;100.00;99996.09;5015291;28;75843;-57
2021/04/10 05:10:58;;;;;;;15.13;13.10;;;5.80;99.90;;;3.47;100.00;99983.34;5018855;28;69134;-58
2021/04/10 05:13:24;;;;;;;15.00;12.07;;;5.80;99.90;;;3.46;100.00;99992.22;5011023;28;66037;-57
2021/04/10 05:15:52;;;;;;;15.57;11.73;;;5.80;99.90;;;3.57;100.00;99999.34;5015764;28;65729;-58
2021/04/10 05:18:18;;;;;;;14.67;12.37;;;5.80;99.90;;;3.57;100.00;100009.94;5014782;28;69766;-57
2021/04/10 05:20:45;;;;;;;14.60;13.13;;;5.80;99.90;;;3.67;100.00;100024.13;5030865;28;56346;-57
2021/04/10 05:23:11;;;;;;;15.23;13.50;;;5.80;99.90;;;3.72;100.00;100023.72;5032514;28;69950;-55
2021/04/10 05:25:38;;;;;;;17.13;13.50;;;5.80;99.90;;;3.78;100.00;100028.56;5017399;28;80653;-58
2021/04/10 05:28:05;;;;;;;16.40;14.00;;;5.90;99.90;;;3.70;100.00;100041.56;5018360;28;70234;-58
2021/04/10 05:30:31;;;;;;;14.37;13.00;;;5.90;99.90;;;3.74;100.00;100072.09;5021898;28;74962;-58
2021/04/10 05:32:59;;;;;;;15.17;13.53;;;5.90;99.90;;;3.69;100.00;100076.91;5026665;28;68170;-56
2021/04/10 05:35:25;;;;;;;17.13;13.53;;;5.90;99.90;;;3.57;100.00;100079.56;5038294;28;50571;-57
2021/04/10 05:37:55;;;;;;;22.03;14.10;;;5.90;99.90;;;3.52;100.00;100087.00;5035170;28;55186;-56
2021/04/10 05:40:21;;;;;;;18.30;13.23;;;5.90;99.90;;;3.51;100.00;100095.03;5028791;28;51425;-58
2021/04/10 05:42:48;;;;;;;13.33;11.37;;;5.90;99.90;;;3.53;100.00;100103.72;5034800;28;62466;-59
2021/04/10 05:45:15;;;;;;;13.53;11.97;;;5.90;99.90;;;3.40;100.00;100106.44;5029740;28;59430;-58
2021/04/10 05:47:41;;;;;;;17.33;12.70;;;5.90;99.90;;;3.57;100.00;100121.03;5032878;28;59012;-58
2021/04/10 05:50:11;;;;;;;16.03;12.27;;;5.90;99.90;;;3.57;100.00;100128.97;5034858;28;66414;-58
2021/04/10 05:52:38;;;;;;;13.57;12.13;;;5.90;99.90;;;3.46;100.00;100137.72;5000779;28;68496;-60
2021/04/10 05:55:07;;;;;;;15.07;12.10;;;5.90;99.90;;;3.47;100.00;100135.91;5026999;28;71662;-60
2021/04/10 05:57:33;;;;;;;15.00;12.60;;;5.80;99.90;;;3.58;100.00;100139.44;5026608;28;77336;-59
2021/04/10 06:00:00;;;;;;;16.93;12.47;;;5.80;99.90;;;3.51;100.00;100142.66;5018342;28;74887;-60
2021/04/10 06:02:26;;;;;;;13.87;12.00;;;5.80;99.90;;;3.59;100.00;100129.69;5039581;28;53576;-61
2021/04/10 06:05:00;;;;;;;15.43;12.60;;;5.80;99.90;;;3.69;100.00;100128.03;5023311;28;72700;-58
2021/04/10 06:07:31;;;;;;;15.43;13.53;;;5.80;99.90;;;3.76;100.00;100123.94;5022715;28;72186;-61
2021/04/10 06:09:57;;;;;;;17.50;12.43;;;5.70;99.90;;;3.80;100.00;100121.91;5019032;28;64992;-61
2021/04/10 06:12:25;;;;;;;14.77;12.60;;;5.70;99.90;;;3.76;100.00;100121.28;5032901;28;60179;-62
2021/04/10 06:15:00;;;;;;;14.77;13.17;;;5.80;99.90;;;3.83;100.00;100121.69;5036889;28;57041;-60
2021/04/10 06:17:27;;;;;;;14.40;12.80;;;5.80;99.90;;;3.85;100.00;100122.38;5030022;28;65131;-61
2021/04/10 06:19:54;;;;;;;16.20;12.87;;;5.80;99.90;;;3.69;100.00;100120.09;5011336;28;66535;-61
2021/04/10 06:22:20;;;;;;;15.07;13.10;;;5.80;99.90;;;3.70;100.00;100129.72;5040342;28;56615;-61
2021/04/10 06:24:59;;;;;;;17.63;13.60;;;5.90;99.90;;;3.80;100.00;100117.47;5032141;28;61423;-61
2021/04/10 06:42:51;;;;;;;18.93;14.23;;;6.00;99.90;;;4.22;100.00;100131.75;5028278;28;70536;-60
2021/04/10 06:46:11;;;;;;;17.37;14.43;;;6.00;99.90;;;4.22;100.00;100139.72;5011485;28;69844;-59
2021/04/10 06:49:31;;;;;;;18.03;14.13;;;6.10;99.90;;;4.26;100.00;100135.03;5016457;28;61936;-61
2021/04/10 06:52:44;;;;;;;17.93;14.63;;;6.10;99.90;;;4.40;100.00;100126.81;5035010;28;51000;-59
2021/04/10 07:03:21;;;;;;;16.40;13.87;;;6.30;99.90;;;4.69;100.00;100151.00;4929081;28;65075;-61
2021/04/10 07:10:24;;;;;;;17.33;14.73;;;6.40;99.90;;;4.58;100.00;100146.53;5011089;28;80123;-61
2021/04/10 07:14:04;;;;;;;18.40;15.30;;;6.50;99.90;;;4.69;100.00;100148.34;5024826;28;73006;-60
2021/04/10 07:33:36;;;;;;;24.73;22.17;;;6.70;99.90;;;4.96;100.00;100145.22;4925730;28;69978;-61
2021/04/10 07:36:50;;;;;;;24.70;20.20;;;6.80;99.90;;;5.00;100.00;100154.63;4862187;28;55707;-60
2021/04/10 07:40:15;;;;;;;27.20;22.27;;;6.80;99.90;;;5.03;100.00;100157.03;4914396;28;65948;-60
2021/04/10 07:44:03;;;;;;;26.27;21.97;;;6.90;99.90;;;5.06;100.00;100164.75;4915889;28;54696;-61
2021/04/10 07:51:14;;;;;;;21.97;18.47;;;7.00;99.90;;;4.89;100.00;100167.91;5017963;28;50864;-60
2021/04/10 07:54:45;;;;;;;20.70;17.53;;;7.00;99.90;;;4.76;100.00;100170.72;5017564;28;53238;-61
2021/04/10 08:01:48;;;;;;;23.90;18.70;;;7.00;99.90;;;4.98;100.00;100180.41;5017837;28;48270;-62
2021/04/10 08:05:23;;;;;;;25.37;20.07;;;7.00;99.90;;;4.98;100.00;100191.88;5011381;28;46987;-60
2021/04/10 08:19:50;;;;;;;26.13;20.17;;;7.20;99.90;;;5.20;100.00;100192.75;4886973;28;57099;-59
2021/04/10 08:23:01;;;;;;;23.40;20.27;;;7.30;99.90;;;5.12;100.00;100197.84;4934849;28;54650;-59
2021/04/10 08:30:11;;;;;;;25.80;21.27;;;7.40;99.90;;;5.21;100.00;100215.66;4938655;28;49355;-59
2021/04/10 08:33:53;;;;;;;24.13;20.63;;;7.60;99.90;;;5.35;100.00;100226.84;4937689;28;50799;-59
2021/04/10 08:40:53;;;;;;;19.23;17.13;;;7.80;99.90;;;5.53;100.00;100226.28;4960930;28;48831;-58
2021/04/10 08:44:21;;;;;;;22.17;19.73;;;8.00;99.90;;;5.66;100.00;100224.28;5029550;28;39386;-59
2021/04/10 08:47:36;;;;;;;27.10;23.00;;;8.10;99.90;;;5.62;100.00;100229.00;5021555;28;51130;-59
2021/04/10 08:51:02;;;;;;;21.50;17.53;;;8.20;99.90;;;5.68;100.00;100239.13;5022009;28;49094;-59
2021/04/10 08:54:15;;;;;;;25.47;22.50;;;8.30;99.90;;;5.95;100.00;100243.94;5022241;28;48878;-59
2021/04/10 08:57:53;;;;;;;19.87;17.70;;;8.40;99.90;;;6.07;100.00;100248.22;5023856;28;51486;-60
2021/04/10 09:08:24;;;;;;;20.13;18.03;;;8.70;99.90;;;6.31;100.00;100247.94;5018544;27;80436;-60
2021/04/10 09:19:17;;;;;;;18.70;16.80;;;9.10;99.90;;;6.29;100.00;100272.97;4956097;28;97481;-60
2021/04/10 09:34:15;;;;;;;18.70;16.70;;;9.00;99.90;;;6.13;100.00;100290.22;4971712;28;99330;-59
2021/04/10 09:45:56;;;;;;;19.30;17.33;;;9.10;99.90;;;6.33;100.00;100299.13;4869756;28;95514;-59
2021/04/10 09:49:14;;;;;;;20.43;17.90;;;9.10;99.90;;;7.01;100.00;100302.13;4971236;28;94716;-58
2021/04/10 09:52:25;;;;;;;19.03;17.03;;;9.20;99.90;;;7.42;100.00;100301.09;4947826;28;99717;-60
2021/04/10 09:59:21;;;;;;;17.87;15.80;;;9.60;99.90;;;7.03;100.00;100294.88;4941924;28;99915;-59
2021/04/10 10:02:47;;;;;;;19.03;17.03;;;9.80;99.90;;;7.27;100.00;100300.66;4944776;28;99400;-58
2021/04/10 10:10:31;;;;;;;17.10;15.33;;;10.30;99.90;;;7.42;100.00;100304.59;4824318;28;99786;-57
2021/04/10 10:14:06;;;;;;;20.20;16.07;;;10.60;99.90;;;8.48;100.00;100303.75;4862128;28;96597;-59
2021/04/10 10:17:36;;;;;;;17.00;15.20;;;10.80;99.90;;;8.33;100.00;100299.88;4911520;28;95294;-57
2021/04/10 10:20:47;;;;;;;15.10;13.60;;;11.00;99.90;;;7.87;100.00;100306.75;4951598;28;89070;-59
2021/04/10 10:24:01;;;;;;;15.40;13.90;;;11.30;99.90;;;8.27;100.00;100301.25;4929537;28;96144;-58
2021/04/10 10:27:12;;;;;;;17.03;15.23;;;11.40;99.90;;;7.76;100.00;100302.41;4932623;28;97205;-60
2021/04/10 10:30:45;;;;;;;15.63;13.90;;;11.60;99.90;;;8.06;100.00;100303.22;4935681;28;98302;-57
2021/04/10 10:37:33;;;;;;;15.27;13.77;;;11.70;99.90;;;7.68;100.00;100312.06;4943740;28;96137;-60
2021/04/10 10:44:40;;;;;;;16.10;14.40;;;11.60;99.90;;;7.88;100.00;100319.09;4950802;28;92191;-59
2021/04/10 10:51:36;;;;;;;15.80;14.20;;;11.30;99.90;;;7.49;100.00;100312.91;4952151;28;94139;-58
2021/04/10 10:54:57;;;;;;;15.73;14.10;;;11.40;99.90;;;7.40;100.00;100319.91;4964114;28;86099;-59
2021/04/10 10:58:32;;;;;;;15.33;13.77;;;11.30;99.90;;;7.61;100.00;100318.94;4957022;28;95849;-59
2021/04/10 11:01:57;;;;;;;16.67;14.97;;;11.20;99.90;;;7.74;100.00;100323.03;4922022;28;99755;-58
2021/04/10 11:05:09;;;;;;;15.80;13.87;;;11.20;99.90;;;8.27;100.00;100327.91;4942032;28;98928;-59
2021/04/10 11:08:22;;;;;;;15.77;13.90;;;11.30;99.90;;;8.35;100.00;100320.06;4943082;28;99330;-59
2021/04/10 11:19:01;;;;;;;15.27;13.73;;;11.50;99.90;;;8.11;100.00;100320.50;4935448;28;99596;-58
2021/04/10 11:22:17;;;;;;;18.03;14.50;;;11.50;99.90;;;8.35;100.00;100324.56;4933374;28;98885;-60
2021/04/10 11:25:30;;;;;;;16.57;14.97;;;11.50;99.90;;;8.24;100.00;100341.53;4939581;28;99530;-60
2021/04/10 11:28:59;;;;;;;15.63;14.17;;;11.50;99.90;;;8.32;100.00;100332.84;4942914;28;95974;-60
2021/04/10 11:32:28;;;;;;;17.70;15.80;;;11.50;99.90;;;8.22;100.00;100336.34;4934112;28;99991;-59
2021/04/10 11:35:41;;;;;;;16.07;14.47;;;11.50;99.90;;;8.31;100.00;100337.28;4944739;28;95820;-60
2021/04/10 11:38:59;;;;;;;16.70;14.87;;;11.40;99.90;;;8.35;100.00;100335.22;4942569;28;92908;-60
2021/04/10 11:42:11;;;;;;;16.27;14.57;;;11.50;99.90;;;8.33;100.00;100335.38;4947004;28;96965;-57
2021/04/10 11:45:31;;;;;;;15.27;13.67;;;11.50;99.90;;;8.41;100.00;100339.97;4950672;28;90546;-59
2021/04/10 11:48:46;;;;;;;17.83;15.03;;;11.50;99.90;;;8.37;100.00;100347.44;4967341;28;84185;-60
2021/04/10 11:51:57;;;;;;;16.33;14.63;;;11.60;99.90;;;8.46;100.00;100346.56;4954937;28;90416;-59
2021/04/10 11:55:18;;;;;;;15.27;13.67;;;11.60;99.90;;;8.40;100.00;100347.16;4939293;28;99588;-59
2021/04/10 11:58:36;;;;;;;14.83;13.30;;;11.60;99.90;;;8.59;100.00;100346.25;4937043;28;99499;-58
2021/04/10 12:02:00;;;;;;;15.50;14.07;;;11.70;99.90;;;8.31;100.00;100339.97;4953843;28;88304;-59
2021/04/10 12:05:17;;;;;;;15.50;13.90;;;11.70;99.90;;;8.42;100.00;100347.81;4968864;28;77106;-59
2021/04/10 12:08:56;;;;;;;17.37;15.67;;;11.80;99.90;;;8.56;100.00;100352.72;4951414;28;89115;-58
2021/04/10 12:12:08;;;;;;;15.03;13.60;;;11.70;99.90;;;8.56;100.00;100357.22;4937242;28;91026;-58
2021/04/10 12:15:22;;;;;;;18.50;14.47;;;11.80;99.90;;;8.40;100.00;100351.66;4953184;28;88082;-59
2021/04/10 12:18:36;;;;;;;22.60;20.30;;;11.80;99.90;;;8.47;100.00;100358.09;4950258;28;92453;-58
2021/04/10 12:21:47;;;;;;;18.33;16.63;;;11.90;99.90;;;8.71;100.00;100357.59;4956467;28;87514;-59
2021/04/10 12:24:58;;;;;;;15.70;14.10;;;11.90;99.90;;;8.44;100.00;100366.34;4955639;28;91842;-57
2021/04/10 12:28:09;;;;;;;15.03;13.63;;;12.00;99.90;;;8.46;100.00;100367.06;4956010;28;82904;-58
2021/04/10 12:31:22;;;;;;;16.73;14.90;;;12.00;99.90;;;8.52;100.00;100364.69;4954834;28;96158;-59
2021/04/10 12:34:35;;;;;;;16.10;13.93;;;12.10;99.90;;;8.80;100.00;100360.25;4950140;28;89683;-59
2021/04/10 12:37:46;;;;;;;16.13;14.53;;;12.10;99.90;;;8.87;100.00;100372.03;4938656;28;94251;-57
2021/04/10 12:40:57;;;;;;;15.90;14.30;;;12.10;99.90;;;8.79;100.00;100368.38;4961261;28;87937;-59
2021/04/10 12:44:08;;;;;;;15.73;14.13;;;12.20;99.90;;;9.11;100.00;100358.19;4959209;28;84749;-58
2021/04/10 12:47:23;;;;;;;15.83;13.63;;;12.30;99.90;;;9.12;100.00;100359.88;4965722;28;75400;-59
2021/04/10 12:50:53;;;;;;;15.30;13.77;;;12.40;99.90;;;8.95;100.00;100363.28;4984832;28;73640;-59
2021/04/10 12:57:15;;;;;;;18.40;16.33;;;12.50;99.90;;;8.97;100.00;100372.00;4967907;28;67617;-57
2021/04/10 12:59:43;;;;;;;18.03;15.60;;;12.60;99.90;;;9.12;100.00;100370.53;4969569;28;75775;-58
2021/04/10 13:02:10;;;;;;;15.70;14.10;;;12.70;99.90;;;9.07;100.00;100369.28;4971154;28;63987;-57
2021/04/10 13:04:37;;;;;;;16.93;15.13;;;12.60;99.90;;;8.65;100.00;100372.38;4969455;28;59229;-58
2021/04/10 13:07:04;;;;;;;16.63;15.03;;;12.60;99.90;;;8.82;100.00;100376.09;4971785;28;57363;-57
2021/04/10 13:09:32;;;;;;;17.77;15.50;;;12.60;99.90;;;8.87;100.00;100366.69;4977205;28;66569;-58
2021/04/10 13:11:59;;;;;;;18.50;16.70;;;12.60;99.90;;;8.91;100.00;100370.75;4970730;28;70801;-59
2021/04/10 13:14:27;;;;;;;20.10;17.93;;;12.50;99.90;;;8.89;100.00;100359.38;4962315;28;74718;-58
2021/04/10 13:16:55;;;;;;;18.53;16.37;;;12.50;99.90;;;8.85;100.00;100360.66;4965108;28;82281;-58
2021/04/10 13:19:23;;;;;;;19.10;17.10;;;12.50;99.90;;;8.60;100.00;100364.78;4964455;28;78452;-59
2021/04/10 13:21:50;;;;;;;20.17;18.10;;;12.50;99.90;;;8.55;100.00;100366.19;4968854;28;69999;-58
2021/04/10 13:24:19;;;;;;;19.43;17.43;;;12.40;99.90;;;8.44;100.00;100369.88;4963191;28;79103;-57
2021/04/10 13:26:46;;;;;;;19.73;17.60;;;12.30;99.90;;;8.24;100.00;100371.69;4967232;28;69903;-57
2021/04/10 13:29:12;;;;;;;19.43;17.53;;;12.20;99.90;;;8.24;100.00;100365.50;4966830;28;65445;-59
2021/04/10 13:31:44;;;;;;;18.53;16.63;;;12.10;99.90;;;8.14;100.00;100367.34;4961739;28;82808;-58
2021/04/10 13:34:11;;;;;;;16.90;15.20;;;11.90;99.90;;;8.13;100.00;100368.31;4950535;28;87274;-58
2021/04/10 13:36:38;;;;;;;20.03;17.37;;;11.80;99.90;;;8.04;100.00;100377.13;4959980;28;86921;-59
2021/04/10 13:39:08;;;;;;;19.30;17.50;;;11.70;99.90;;;8.02;100.00;100371.13;4963438;28;74790;-58
2021/04/10 13:41:35;;;;;;;19.57;17.27;;;11.60;99.90;;;8.02;100.00;100373.81;4967533;28;76230;-59
2021/04/10 13:44:02;;;;;;;23.13;20.47;;;11.50;99.90;;;7.94;100.00;100372.66;4974167;28;66418;-59
2021/04/10 13:46:29;;;;;;;22.77;19.20;;;11.40;99.90;;;8.07;100.00;100382.19;4973106;28;63056;-59
2021/04/10 13:48:55;;;;;;;22.13;20.00;;;11.40;99.90;;;8.04;100.00;100382.47;4971095;28;62402;-57
2021/04/10 13:51:22;;;;;;;22.33;20.03;;;11.30;99.90;;;8.06;100.00;100375.19;4972560;28;61745;-57
2021/04/10 13:53:51;;;;;;;20.97;18.77;;;11.30;99.90;;;8.04;100.00;100377.13;4979894;28;56574;-58
2021/04/10 13:56:18;;;;;;;24.03;21.50;;;11.30;99.90;;;8.04;100.00;100377.97;4979788;28;53074;-58
2021/04/10 13:58:45;;;;;;;21.80;19.40;;;11.30;99.90;;;8.09;100.00;100373.09;4969166;28;68116;-58
2021/04/10 14:01:12;;;;;;;20.77;17.73;;;11.20;99.90;;;8.12;100.00;100383.47;4979697;28;58321;-57
2021/04/10 14:03:39;;;;;;;19.50;17.43;;;11.20;99.90;;;7.85;100.00;100376.16;4975708;28;64016;-58
2021/04/10 14:06:07;;;;;;;19.80;17.77;;;11.20;99.90;;;7.91;100.00;100383.59;4973763;28;64189;-58
2021/04/10 14:08:34;;;;;;;21.03;18.67;;;11.20;99.90;;;7.95;100.00;100384.16;4973550;28;65998;-59
2021/04/10 14:11:01;;;;;;;20.67;17.90;;;11.10;99.90;;;7.96;100.00;100382.34;4979693;28;59909;-59
2021/04/10 14:13:28;;;;;;;21.07;18.77;;;11.10;99.90;;;7.83;100.00;100374.59;4985076;28;56571;-58
2021/04/10 14:15:57;;;;;;;22.73;18.23;;;11.10;99.90;;;7.87;100.00;100379.53;4988196;28;48400;-58
2021/04/10 14:18:23;;;;;;;19.57;17.37;;;11.10;99.90;;;7.93;100.00;100381.63;4995751;28;50104;-58
2021/04/10 14:20:50;;;;;;;19.80;17.37;;;11.00;99.90;;;8.03;100.00;100376.31;4985094;28;45083;-58
2021/04/10 14:23:22;;;;;;;20.50;18.40;;;11.00;99.90;;;8.09;100.00;100374.91;4985795;28;54271;-59
2021/04/10 14:25:50;;;;;;;20.60;18.47;;;11.00;99.90;;;8.22;100.00;100373.66;4982153;28;62711;-57
2021/04/10 14:28:17;;;;;;;20.57;18.27;;;11.10;99.90;;;8.31;100.00;100369.28;4974473;28;59892;-59
2021/04/10 14:30:45;;;;;;;18.70;16.77;;;11.10;99.90;;;8.44;100.00;100374.34;4978516;28;55841;-59
2021/04/10 14:33:14;;;;;;;20.10;18.00;;;11.20;99.90;;;8.50;100.00;100363.97;4977368;28;54710;-57
2021/04/10 14:35:47;;;;;;;20.93;18.77;;;11.40;99.90;;;8.72;100.00;100376.13;4977511;28;56352;-56
2021/04/10 14:38:14;;;;;;;21.53;17.87;;;11.50;99.90;;;8.82;100.00;100378.78;4981141;28;53594;-59
2021/04/10 14:40:42;;;;;;;20.00;17.27;;;11.60;99.90;;;8.77;100.00;100378.38;4970211;28;66580;-58
2021/04/10 14:43:11;;;;;;;21.13;18.80;;;11.70;99.90;;;8.78;100.00;100385.41;4974622;28;54628;-58
2021/04/10 14:45:41;;;;;;;20.60;18.50;;;11.80;99.90;;;8.83;100.00;100383.97;4978053;28;57279;-58
2021/04/10 14:48:09;;;;;;;19.67;17.50;;;11.90;99.90;;;8.60;100.00;100385.28;4972530;28;76800;-57
2021/04/10 14:50:37;;;;;;;21.63;17.57;;;11.90;99.90;;;8.39;100.00;100385.47;4966626;28;79185;-57
2021/04/10 14:53:12;;;;;;;20.07;17.93;;;12.00;99.90;;;8.50;100.00;100384.47;4964724;28;74102;-57